This is the latest recevied weather packets stored in our database for station/object K4AXV-13. If no packets are shown the sender has not sent any weather packets the latest 10 day(s).
| Time | Temp. | Humidity | Pressure | Rain* | Wind** | Luminosity | Snow |
|---|---|---|---|---|---|---|---|
| 1777569320 | 21.11° C | - | - | 0 mm | 1.79 m/s, 98° | - | - |
| 1777568118 | 20.56° C | - | - | 0 mm | 1.79 m/s, 90° | - | - |
| 1777567819 | 21.11° C | - | - | 0 mm | 1.34 m/s, 117° | - | - |
| 1777567518 | 21.11° C | - | - | 0 mm | 0 m/s | - | - |
| 1777566917 | 21.11° C | - | - | 0 mm | 1.34 m/s, 98° | - | - |
| 1777565716 | 21.11° C | - | - | 0 mm | 2.68 m/s, 125° | - | - |
| 1777565417 | 21.11° C | - | - | 0 mm | 1.79 m/s, 110° | - | - |
| 1777565115 | 20.56° C | - | - | 0 mm | 1.79 m/s, 90° | - | - |
| 1777564513 | 20.56° C | - | - | 0 mm | 1.79 m/s, 87° | - | - |
| 1777563614 | 20° C | - | - | 0 mm | 0.89 m/s, 94° | - | - |
| 1777563013 | 20° C | - | - | 0 mm | 1.79 m/s, 121° | - | - |
| 1777562111 | 20° C | - | - | 0 mm | 1.79 m/s, 80° | - | - |
| 1777561812 | 20° C | - | - | 0 mm | 1.34 m/s, 93° | - | - |
| 1777561211 | 20° C | - | - | 1.78 mm | 0.89 m/s, 56° | - | - |
| 1777560910 | 20° C | - | - | 1.78 mm | 0.45 m/s, 58° | - | - |
| 1777560009 | 20° C | - | - | 1.78 mm | 1.34 m/s, 111° | - | - |
| 1777559408 | 20° C | - | - | 1.78 mm | 0 m/s | - | - |
| 1777559107 | 20° C | - | - | 1.78 mm | 0.45 m/s, 75° | - | - |
| 1777558808 | 20.56° C | - | - | 1.78 mm | 0 m/s | - | - |
| 1777558506 | 20° C | - | - | 1.78 mm | 0 m/s | - | - |
| 1777558208 | 20° C | - | - | 1.78 mm | 0.89 m/s, 87° | - | - |
| 1777557906 | 20° C | - | - | 3.56 mm | 0 m/s | - | - |
| 1777557305 | 20° C | - | - | 3.56 mm | 1.34 m/s, 125° | - | - |
| 1777556406 | 20° C | - | - | 3.56 mm | 0 m/s | - | - |
| 1777556104 | 20° C | - | - | 3.56 mm | 0 m/s | - | - |
* Rain latest hour (hover to see other rain measurements)
** Current wind speed in m/s (hover to see current wind gust speed)